sensor_id;sensor_type;location;lat;lon;timestamp;temperature;humidity
11505;DHT22;5809;53.262;10.408;2023-09-30T00:01:08;12.60;99.90
11505;DHT22;5809;53.262;10.408;2023-09-30T00:03:36;12.60;99.90
11505;DHT22;5809;53.262;10.408;2023-09-30T00:06:04;12.60;99.90
11505;DHT22;5809;53.262;10.408;2023-09-30T00:10:58;12.50;99.90
11505;DHT22;5809;53.262;10.408;2023-09-30T00:15:52;12.50;99.90
11505;DHT22;5809;53.262;10.408;2023-09-30T00:18:19;12.40;99.90
11505;DHT22;5809;53.262;10.408;2023-09-30T00:23:14;12.40;99.90
11505;DHT22;5809;53.262;10.408;2023-09-30T00:30:36;12.40;99.90
11505;DHT22;5809;53.262;10.408;2023-09-30T00:33:04;12.40;99.90
11505;DHT22;5809;53.262;10.408;2023-09-30T00:35:32;12.30;99.90
11505;DHT22;5809;53.262;10.408;2023-09-30T00:37:58;12.30;99.90
11505;DHT22;5809;53.262;10.408;2023-09-30T00:40:27;12.30;99.90
11505;DHT22;5809;53.262;10.408;2023-09-30T00:45:21;12.30;99.90
11505;DHT22;5809;53.262;10.408;2023-09-30T00:50:16;12.30;99.90
11505;DHT22;5809;53.262;10.408;2023-09-30T00:52:45;12.30;99.90
11505;DHT22;5809;53.262;10.408;2023-09-30T00:55:14;12.20;99.90
11505;DHT22;5809;53.262;10.408;2023-09-30T00:57:43;12.20;99.90
11505;DHT22;5809;53.262;10.408;2023-09-30T01:00:11;12.20;99.90
11505;DHT22;5809;53.262;10.408;2023-09-30T01:02:38;12.20;99.90
11505;DHT22;5809;53.262;10.408;2023-09-30T01:05:06;12.20;99.90
11505;DHT22;5809;53.262;10.408;2023-09-30T01:10:00;12.20;99.90
11505;DHT22;5809;53.262;10.408;2023-09-30T01:12:27;12.30;99.90
11505;DHT22;5809;53.262;10.408;2023-09-30T01:14:58;12.30;99.90
11505;DHT22;5809;53.262;10.408;2023-09-30T01:17:25;12.30;99.90
11505;DHT22;5809;53.262;10.408;2023-09-30T01:22:23;12.40;99.90
11505;DHT22;5809;53.262;10.408;2023-09-30T01:24:50;12.40;99.90
11505;DHT22;5809;53.262;10.408;2023-09-30T01:29:43;12.40;99.90
11505;DHT22;5809;53.262;10.408;2023-09-30T01:39:33;12.40;99.90
11505;DHT22;5809;53.262;10.408;2023-09-30T01:42:00;12.40;99.90
11505;DHT22;5809;53.262;10.408;2023-09-30T01:44:28;12.40;99.90
11505;DHT22;5809;53.262;10.408;2023-09-30T01:46:55;12.30;99.90
11505;DHT22;5809;53.262;10.408;2023-09-30T01:56:47;12.20;99.90
11505;DHT22;5809;53.262;10.408;2023-09-30T02:06:41;12.00;99.90
11505;DHT22;5809;53.262;10.408;2023-09-30T02:09:08;12.00;99.90
11505;DHT22;5809;53.262;10.408;2023-09-30T02:11:34;11.90;99.90
11505;DHT22;5809;53.262;10.408;2023-09-30T02:14:03;11.90;99.90
11505;DHT22;5809;53.262;10.408;2023-09-30T02:16:31;11.80;99.90
11505;DHT22;5809;53.262;10.408;2023-09-30T02:18:58;11.80;99.90
11505;DHT22;5809;53.262;10.408;2023-09-30T02:21:25;11.80;99.90
11505;DHT22;5809;53.262;10.408;2023-09-30T02:26:21;11.80;99.90
11505;DHT22;5809;53.262;10.408;2023-09-30T02:31:20;11.80;99.90
11505;DHT22;5809;53.262;10.408;2023-09-30T02:33:47;11.70;99.90
11505;DHT22;5809;53.262;10.408;2023-09-30T02:38:41;11.70;99.90
11505;DHT22;5809;53.262;10.408;2023-09-30T02:41:09;11.70;99.90
11505;DHT22;5809;53.262;10.408;2023-09-30T02:46:03;11.60;99.90
11505;DHT22;5809;53.262;10.408;2023-09-30T02:48:32;11.60;99.90
11505;DHT22;5809;53.262;10.408;2023-09-30T02:50:58;11.60;99.90
11505;DHT22;5809;53.262;10.408;2023-09-30T02:53:25;11.50;99.90
11505;DHT22;5809;53.262;10.408;2023-09-30T02:55:53;11.60;99.90
11505;DHT22;5809;53.262;10.408;2023-09-30T02:58:22;11.50;99.90
11505;DHT22;5809;53.262;10.408;2023-09-30T03:00:49;11.50;99.90
11505;DHT22;5809;53.262;10.408;2023-09-30T03:03:16;11.50;99.90
11505;DHT22;5809;53.262;10.408;2023-09-30T03:05:44;11.50;99.90
11505;DHT22;5809;53.262;10.408;2023-09-30T03:08:11;11.50;99.90
11505;DHT22;5809;53.262;10.408;2023-09-30T03:10:37;11.40;99.90
11505;DHT22;5809;53.262;10.408;2023-09-30T03:13:06;11.40;99.90
11505;DHT22;5809;53.262;10.408;2023-09-30T03:15:34;11.40;99.90
11505;DHT22;5809;53.262;10.408;2023-09-30T03:18:01;11.30;99.90
11505;DHT22;5809;53.262;10.408;2023-09-30T03:22:57;11.20;99.90
11505;DHT22;5809;53.262;10.408;2023-09-30T03:25:25;11.30;99.90
11505;DHT22;5809;53.262;10.408;2023-09-30T03:30:19;11.30;99.90
11505;DHT22;5809;53.262;10.408;2023-09-30T03:32:46;11.30;99.90
11505;DHT22;5809;53.262;10.408;2023-09-30T03:37:42;11.30;99.90
11505;DHT22;5809;53.262;10.408;2023-09-30T03:40:11;11.30;99.90
11505;DHT22;5809;53.262;10.408;2023-09-30T03:42:40;11.30;99.90
11505;DHT22;5809;53.262;10.408;2023-09-30T03:45:08;11.10;99.90
11505;DHT22;5809;53.262;10.408;2023-09-30T03:47:36;11.20;99.90
11505;DHT22;5809;53.262;10.408;2023-09-30T03:50:04;11.20;99.90
11505;DHT22;5809;53.262;10.408;2023-09-30T03:52:38;11.20;99.90
11505;DHT22;5809;53.262;10.408;2023-09-30T03:55:06;11.50;99.90
11505;DHT22;5809;53.262;10.408;2023-09-30T03:57:36;11.20;99.90
11505;DHT22;5809;53.262;10.408;2023-09-30T04:00:03;11.20;99.90
11505;DHT22;5809;53.262;10.408;2023-09-30T04:05:00;11.20;99.90
11505;DHT22;5809;53.262;10.408;2023-09-30T04:12:26;11.30;99.90
11505;DHT22;5809;53.262;10.408;2023-09-30T04:14:55;11.30;99.90
11505;DHT22;5809;53.262;10.408;2023-09-30T04:17:23;11.30;99.90
11505;DHT22;5809;53.262;10.408;2023-09-30T04:19:52;11.30;99.90
11505;DHT22;5809;53.262;10.408;2023-09-30T04:24:50;11.30;99.90
11505;DHT22;5809;53.262;10.408;2023-09-30T04:27:17;11.30;99.90
11505;DHT22;5809;53.262;10.408;2023-09-30T04:29:44;11.20;99.90
11505;DHT22;5809;53.262;10.408;2023-09-30T04:32:12;11.20;99.90
11505;DHT22;5809;53.262;10.408;2023-09-30T04:37:06;11.20;99.90
11505;DHT22;5809;53.262;10.408;2023-09-30T04:42:02;11.30;99.90
11505;DHT22;5809;53.262;10.408;2023-09-30T04:44:29;11.30;99.90
11505;DHT22;5809;53.262;10.408;2023-09-30T04:46:56;11.30;99.90
11505;DHT22;5809;53.262;10.408;2023-09-30T04:49:24;11.30;99.90
11505;DHT22;5809;53.262;10.408;2023-09-30T04:54:18;11.30;99.90
11505;DHT22;5809;53.262;10.408;2023-09-30T04:59:13;11.40;99.90
11505;DHT22;5809;53.262;10.408;2023-09-30T05:01:40;11.30;99.90
11505;DHT22;5809;53.262;10.408;2023-09-30T05:06:36;11.30;99.90
11505;DHT22;5809;53.262;10.408;2023-09-30T05:11:30;11.40;99.90
11505;DHT22;5809;53.262;10.408;2023-09-30T05:18:52;11.40;99.90
11505;DHT22;5809;53.262;10.408;2023-09-30T05:21:20;11.40;99.90
11505;DHT22;5809;53.262;10.408;2023-09-30T05:23:48;11.30;99.90
11505;DHT22;5809;53.262;10.408;2023-09-30T05:28:43;11.40;99.90
11505;DHT22;5809;53.262;10.408;2023-09-30T05:31:10;11.40;99.90
11505;DHT22;5809;53.262;10.408;2023-09-30T05:33:36;11.40;99.90
11505;DHT22;5809;53.262;10.408;2023-09-30T05:38:30;11.40;99.90
11505;DHT22;5809;53.262;10.408;2023-09-30T05:40:59;11.40;99.90
11505;DHT22;5809;53.262;10.408;2023-09-30T05:43:26;11.40;99.90
11505;DHT22;5809;53.262;10.408;2023-09-30T05:48:21;11.40;99.90
11505;DHT22;5809;53.262;10.408;2023-09-30T05:50:48;11.40;99.90
11505;DHT22;5809;53.262;10.408;2023-09-30T05:53:15;11.40;99.90
11505;DHT22;5809;53.262;10.408;2023-09-30T05:58:13;11.50;99.90
11505;DHT22;5809;53.262;10.408;2023-09-30T06:03:09;11.50;99.90
11505;DHT22;5809;53.262;10.408;2023-09-30T06:05:39;11.60;99.90
11505;DHT22;5809;53.262;10.408;2023-09-30T06:08:09;11.70;99.90
11505;DHT22;5809;53.262;10.408;2023-09-30T06:10:40;11.70;99.90
11505;DHT22;5809;53.262;10.408;2023-09-30T06:15:38;11.80;99.90
11505;DHT22;5809;53.262;10.408;2023-09-30T06:18:07;11.80;99.90
11505;DHT22;5809;53.262;10.408;2023-09-30T06:25:29;11.90;99.90
11505;DHT22;5809;53.262;10.408;2023-09-30T06:27:58;11.90;99.90
11505;DHT22;5809;53.262;10.408;2023-09-30T06:30:26;11.90;99.90
11505;DHT22;5809;53.262;10.408;2023-09-30T06:32:56;11.90;99.90
11505;DHT22;5809;53.262;10.408;2023-09-30T06:35:25;11.90;99.90
11505;DHT22;5809;53.262;10.408;2023-09-30T06:37:52;12.00;99.90
11505;DHT22;5809;53.262;10.408;2023-09-30T06:40:19;12.00;99.90
11505;DHT22;5809;53.262;10.408;2023-09-30T06:42:46;12.00;99.90
11505;DHT22;5809;53.262;10.408;2023-09-30T06:47:41;12.20;99.90
11505;DHT22;5809;53.262;10.408;2023-09-30T06:50:11;12.30;99.90
11505;DHT22;5809;53.262;10.408;2023-09-30T06:52:42;12.40;99.90
11505;DHT22;5809;53.262;10.408;2023-09-30T06:55:10;12.70;99.90
11505;DHT22;5809;53.262;10.408;2023-09-30T06:57:39;13.10;99.90
11505;DHT22;5809;53.262;10.408;2023-09-30T07:00:07;13.50;99.90
11505;DHT22;5809;53.262;10.408;2023-09-30T07:05:05;14.30;99.90
11505;DHT22;5809;53.262;10.408;2023-09-30T07:07:33;14.70;99.90
11505;DHT22;5809;53.262;10.408;2023-09-30T07:10:00;15.20;99.90
11505;DHT22;5809;53.262;10.408;2023-09-30T07:14:54;15.60;99.90
11505;DHT22;5809;53.262;10.408;2023-09-30T07:17:21;15.80;99.90
11505;DHT22;5809;53.262;10.408;2023-09-30T07:19:48;16.10;99.90
11505;DHT22;5809;53.262;10.408;2023-09-30T07:24:44;16.60;99.90
11505;DHT22;5809;53.262;10.408;2023-09-30T07:29:39;17.10;99.90
11505;DHT22;5809;53.262;10.408;2023-09-30T07:32:07;17.00;99.90
11505;DHT22;5809;53.262;10.408;2023-09-30T07:39:29;17.60;99.90
11505;DHT22;5809;53.262;10.408;2023-09-30T07:41:57;18.00;99.90
11505;DHT22;5809;53.262;10.408;2023-09-30T07:44:24;18.10;99.90
11505;DHT22;5809;53.262;10.408;2023-09-30T07:46:51;18.30;99.90
11505;DHT22;5809;53.262;10.408;2023-09-30T07:51:45;18.70;99.90
11505;DHT22;5809;53.262;10.408;2023-09-30T07:54:12;18.50;99.90
11505;DHT22;5809;53.262;10.408;2023-09-30T07:56:39;18.60;99.90
11505;DHT22;5809;53.262;10.408;2023-09-30T07:59:07;18.70;99.90
11505;DHT22;5809;53.262;10.408;2023-09-30T08:01:35;19.00;99.90
11505;DHT22;5809;53.262;10.408;2023-09-30T08:04:03;18.80;99.90
11505;DHT22;5809;53.262;10.408;2023-09-30T08:06:29;18.80;99.90
11505;DHT22;5809;53.262;10.408;2023-09-30T08:13:53;19.00;99.90
11505;DHT22;5809;53.262;10.408;2023-09-30T08:16:21;19.30;99.90
11505;DHT22;5809;53.262;10.408;2023-09-30T08:21:15;19.80;99.90
11505;DHT22;5809;53.262;10.408;2023-09-30T08:26:09;20.20;99.90
11505;DHT22;5809;53.262;10.408;2023-09-30T08:31:04;20.30;99.90
11505;DHT22;5809;53.262;10.408;2023-09-30T08:33:32;20.20;99.90
11505;DHT22;5809;53.262;10.408;2023-09-30T08:36:03;19.80;99.90
11505;DHT22;5809;53.262;10.408;2023-09-30T08:38:33;20.00;99.90
11505;DHT22;5809;53.262;10.408;2023-09-30T08:41:00;20.20;99.90
11505;DHT22;5809;53.262;10.408;2023-09-30T08:48:26;20.90;99.90
11505;DHT22;5809;53.262;10.408;2023-09-30T08:50:55;21.20;99.90
11505;DHT22;5809;53.262;10.408;2023-09-30T08:55:53;20.80;99.90
11505;DHT22;5809;53.262;10.408;2023-09-30T08:58:23;20.80;99.90
11505;DHT22;5809;53.262;10.408;2023-09-30T09:00:51;20.80;99.90
11505;DHT22;5809;53.262;10.408;2023-09-30T09:03:19;20.70;99.90
11505;DHT22;5809;53.262;10.408;2023-09-30T09:05:46;20.50;99.90
11505;DHT22;5809;53.262;10.408;2023-09-30T09:08:14;20.80;99.90
11505;DHT22;5809;53.262;10.408;2023-09-30T09:10:53;20.90;99.90
11505;DHT22;5809;53.262;10.408;2023-09-30T09:15:49;21.20;99.90
11505;DHT22;5809;53.262;10.408;2023-09-30T09:18:31;21.50;99.90
11505;DHT22;5809;53.262;10.408;2023-09-30T09:21:09;21.80;99.90
11505;DHT22;5809;53.262;10.408;2023-09-30T09:23:42;21.50;99.90
11505;DHT22;5809;53.262;10.408;2023-09-30T09:26:10;21.70;99.90
11505;DHT22;5809;53.262;10.408;2023-09-30T09:28:37;22.00;99.90
11505;DHT22;5809;53.262;10.408;2023-09-30T09:31:23;22.00;99.90
11505;DHT22;5809;53.262;10.408;2023-09-30T09:33:50;22.30;99.90
11505;DHT22;5809;53.262;10.408;2023-09-30T09:36:17;22.30;99.90
11505;DHT22;5809;53.262;10.408;2023-09-30T09:38:48;22.20;99.90
11505;DHT22;5809;53.262;10.408;2023-09-30T09:41:18;22.40;99.90
11505;DHT22;5809;53.262;10.408;2023-09-30T09:43:48;22.60;99.90
11505;DHT22;5809;53.262;10.408;2023-09-30T09:46:16;22.30;99.90
11505;DHT22;5809;53.262;10.408;2023-09-30T09:48:45;22.10;99.90
11505;DHT22;5809;53.262;10.408;2023-09-30T09:51:13;22.10;99.90
11505;DHT22;5809;53.262;10.408;2023-09-30T09:53:41;22.50;99.90
11505;DHT22;5809;53.262;10.408;2023-09-30T09:56:10;22.80;99.90
11505;DHT22;5809;53.262;10.408;2023-09-30T09:58:40;23.00;99.90
11505;DHT22;5809;53.262;10.408;2023-09-30T10:01:09;22.90;99.90
11505;DHT22;5809;53.262;10.408;2023-09-30T10:03:37;22.80;99.90
11505;DHT22;5809;53.262;10.408;2023-09-30T10:06:04;22.60;99.90
11505;DHT22;5809;53.262;10.408;2023-09-30T10:08:35;22.50;99.90
11505;DHT22;5809;53.262;10.408;2023-09-30T10:13:56;22.00;99.90
11505;DHT22;5809;53.262;10.408;2023-09-30T10:16:48;21.50;99.90
11505;DHT22;5809;53.262;10.408;2023-09-30T10:19:19;21.30;99.90
11505;DHT22;5809;53.262;10.408;2023-09-30T10:22:20;21.20;99.90
11505;DHT22;5809;53.262;10.408;2023-09-30T10:24:48;21.50;99.90
11505;DHT22;5809;53.262;10.408;2023-09-30T10:27:35;22.00;99.90
11505;DHT22;5809;53.262;10.408;2023-09-30T10:30:11;22.70;99.90
11505;DHT22;5809;53.262;10.408;2023-09-30T10:33:12;22.90;99.90
11505;DHT22;5809;53.262;10.408;2023-09-30T10:35:51;22.70;99.90
11505;DHT22;5809;53.262;10.408;2023-09-30T10:38:38;22.60;99.90
11505;DHT22;5809;53.262;10.408;2023-09-30T10:41:07;22.70;99.90
11505;DHT22;5809;53.262;10.408;2023-09-30T10:43:35;23.30;99.90
11505;DHT22;5809;53.262;10.408;2023-09-30T10:46:30;23.40;99.90
11505;DHT22;5809;53.262;10.408;2023-09-30T10:49:30;23.50;99.90
11505;DHT22;5809;53.262;10.408;2023-09-30T10:52:21;23.30;99.90
11505;DHT22;5809;53.262;10.408;2023-09-30T10:54:49;23.20;99.90
11505;DHT22;5809;53.262;10.408;2023-09-30T10:57:31;22.90;99.90
11505;DHT22;5809;53.262;10.408;2023-09-30T11:00:19;22.90;99.90
11505;DHT22;5809;53.262;10.408;2023-09-30T11:02:52;22.90;99.90
11505;DHT22;5809;53.262;10.408;2023-09-30T11:05:53;23.50;99.90
11505;DHT22;5809;53.262;10.408;2023-09-30T11:08:21;23.50;99.90
11505;DHT22;5809;53.262;10.408;2023-09-30T11:10:49;23.20;99.90
11505;DHT22;5809;53.262;10.408;2023-09-30T11:15:43;24.50;99.90
11505;DHT22;5809;53.262;10.408;2023-09-30T11:18:16;25.40;99.90
11505;DHT22;5809;53.262;10.408;2023-09-30T11:20:43;25.20;99.90
11505;DHT22;5809;53.262;10.408;2023-09-30T11:23:11;25.30;99.90
11505;DHT22;5809;53.262;10.408;2023-09-30T11:25:38;25.40;99.90
11505;DHT22;5809;53.262;10.408;2023-09-30T11:28:13;25.50;99.90
11505;DHT22;5809;53.262;10.408;2023-09-30T11:30:56;25.00;99.90
11505;DHT22;5809;53.262;10.408;2023-09-30T11:33:25;25.20;99.90
11505;DHT22;5809;53.262;10.408;2023-09-30T11:36:01;25.50;99.90
11505;DHT22;5809;53.262;10.408;2023-09-30T11:38:29;25.70;99.90
11505;DHT22;5809;53.262;10.408;2023-09-30T11:41:00;25.50;99.90
11505;DHT22;5809;53.262;10.408;2023-09-30T11:43:29;25.30;99.90
11505;DHT22;5809;53.262;10.408;2023-09-30T11:46:06;25.60;99.90
11505;DHT22;5809;53.262;10.408;2023-09-30T11:48:35;25.50;99.90
11505;DHT22;5809;53.262;10.408;2023-09-30T11:51:03;24.00;99.90
11505;DHT22;5809;53.262;10.408;2023-09-30T11:55:57;24.50;99.90
11505;DHT22;5809;53.262;10.408;2023-09-30T11:58:26;24.80;99.90
11505;DHT22;5809;53.262;10.408;2023-09-30T12:00:54;24.80;99.90
11505;DHT22;5809;53.262;10.408;2023-09-30T12:03:23;25.70;99.90
11505;DHT22;5809;53.262;10.408;2023-09-30T12:05:52;25.50;99.90
11505;DHT22;5809;53.262;10.408;2023-09-30T12:08:20;26.40;99.90
11505;DHT22;5809;53.262;10.408;2023-09-30T12:13:15;27.30;99.90
11505;DHT22;5809;53.262;10.408;2023-09-30T12:15:42;27.00;99.90
11505;DHT22;5809;53.262;10.408;2023-09-30T12:18:10;26.80;99.90
11505;DHT22;5809;53.262;10.408;2023-09-30T12:20:39;27.30;99.90
11505;DHT22;5809;53.262;10.408;2023-09-30T12:23:08;27.60;99.90
11505;DHT22;5809;53.262;10.408;2023-09-30T12:25:34;26.90;99.90
11505;DHT22;5809;53.262;10.408;2023-09-30T12:28:03;26.20;99.90
11505;DHT22;5809;53.262;10.408;2023-09-30T12:30:31;26.00;99.90
11505;DHT22;5809;53.262;10.408;2023-09-30T12:32:58;26.00;99.90
11505;DHT22;5809;53.262;10.408;2023-09-30T12:35:25;24.10;99.90
11505;DHT22;5809;53.262;10.408;2023-09-30T12:37:51;23.10;99.90
11505;DHT22;5809;53.262;10.408;2023-09-30T12:40:20;22.30;99.90
11505;DHT22;5809;53.262;10.408;2023-09-30T12:42:47;21.70;99.90
11505;DHT22;5809;53.262;10.408;2023-09-30T12:45:14;21.50;99.90
11505;DHT22;5809;53.262;10.408;2023-09-30T12:47:42;22.50;99.90
11505;DHT22;5809;53.262;10.408;2023-09-30T12:50:09;22.50;99.90
11505;DHT22;5809;53.262;10.408;2023-09-30T12:52:36;21.80;99.90
11505;DHT22;5809;53.262;10.408;2023-09-30T12:55:05;21.50;99.90
11505;DHT22;5809;53.262;10.408;2023-09-30T12:57:33;22.30;99.90
11505;DHT22;5809;53.262;10.408;2023-09-30T13:00:00;23.10;99.90
11505;DHT22;5809;53.262;10.408;2023-09-30T13:04:55;24.10;99.90
11505;DHT22;5809;53.262;10.408;2023-09-30T13:12:17;24.30;99.90
11505;DHT22;5809;53.262;10.408;2023-09-30T13:14:45;24.80;99.90
11505;DHT22;5809;53.262;10.408;2023-09-30T13:19:40;25.50;99.90
11505;DHT22;5809;53.262;10.408;2023-09-30T13:22:07;25.50;99.90
11505;DHT22;5809;53.262;10.408;2023-09-30T13:27:05;26.00;99.90
11505;DHT22;5809;53.262;10.408;2023-09-30T13:32:00;25.20;99.90
11505;DHT22;5809;53.262;10.408;2023-09-30T13:34:27;25.20;99.90
11505;DHT22;5809;53.262;10.408;2023-09-30T13:36:54;25.20;99.90
11505;DHT22;5809;53.262;10.408;2023-09-30T13:39:22;25.20;99.90
11505;DHT22;5809;53.262;10.408;2023-09-30T13:41:50;24.70;99.90
11505;DHT22;5809;53.262;10.408;2023-09-30T13:44:17;24.80;99.90
11505;DHT22;5809;53.262;10.408;2023-09-30T13:46:44;25.10;99.90
11505;DHT22;5809;53.262;10.408;2023-09-30T13:49:13;24.40;99.90
11505;DHT22;5809;53.262;10.408;2023-09-30T13:51:40;24.70;99.90
11505;DHT22;5809;53.262;10.408;2023-09-30T13:56:34;24.50;99.90
11505;DHT22;5809;53.262;10.408;2023-09-30T13:59:01;24.90;99.90
11505;DHT22;5809;53.262;10.408;2023-09-30T14:01:28;24.90;99.90
11505;DHT22;5809;53.262;10.408;2023-09-30T14:03:55;24.60;99.90
11505;DHT22;5809;53.262;10.408;2023-09-30T14:06:24;24.80;99.90
11505;DHT22;5809;53.262;10.408;2023-09-30T14:08:51;25.50;99.90
11505;DHT22;5809;53.262;10.408;2023-09-30T14:11:19;25.60;99.90
11505;DHT22;5809;53.262;10.408;2023-09-30T14:13:45;25.20;99.90
11505;DHT22;5809;53.262;10.408;2023-09-30T14:16:12;25.60;99.90
11505;DHT22;5809;53.262;10.408;2023-09-30T14:18:39;25.00;99.90
11505;DHT22;5809;53.262;10.408;2023-09-30T14:23:34;24.90;99.90
11505;DHT22;5809;53.262;10.408;2023-09-30T14:26:01;24.80;99.90
11505;DHT22;5809;53.262;10.408;2023-09-30T14:28:36;24.80;99.90
11505;DHT22;5809;53.262;10.408;2023-09-30T14:31:03;24.50;99.90
11505;DHT22;5809;53.262;10.408;2023-09-30T14:33:30;24.60;99.90
11505;DHT22;5809;53.262;10.408;2023-09-30T14:35:57;24.10;99.90
11505;DHT22;5809;53.262;10.408;2023-09-30T14:38:24;24.10;99.90
11505;DHT22;5809;53.262;10.408;2023-09-30T14:40:53;23.60;99.90
11505;DHT22;5809;53.262;10.408;2023-09-30T14:45:47;22.90;99.90
11505;DHT22;5809;53.262;10.408;2023-09-30T14:50:48;23.00;99.90
11505;DHT22;5809;53.262;10.408;2023-09-30T14:53:16;23.10;99.90
11505;DHT22;5809;53.262;10.408;2023-09-30T14:55:42;23.10;99.90
11505;DHT22;5809;53.262;10.408;2023-09-30T14:58:11;22.80;99.90
11505;DHT22;5809;53.262;10.408;2023-09-30T15:00:38;22.70;99.90
11505;DHT22;5809;53.262;10.408;2023-09-30T15:03:04;22.70;99.90
11505;DHT22;5809;53.262;10.408;2023-09-30T15:08:02;21.70;99.90
11505;DHT22;5809;53.262;10.408;2023-09-30T15:10:34;21.40;99.90
11505;DHT22;5809;53.262;10.408;2023-09-30T15:13:01;21.00;99.90
11505;DHT22;5809;53.262;10.408;2023-09-30T15:15:35;21.00;99.90
11505;DHT22;5809;53.262;10.408;2023-09-30T15:18:03;21.00;99.90
11505;DHT22;5809;53.262;10.408;2023-09-30T15:20:30;21.10;99.90
11505;DHT22;5809;53.262;10.408;2023-09-30T15:22:56;20.70;99.90
11505;DHT22;5809;53.262;10.408;2023-09-30T15:25:23;20.30;99.90
11505;DHT22;5809;53.262;10.408;2023-09-30T15:27:50;19.80;99.90
11505;DHT22;5809;53.262;10.408;2023-09-30T15:30:17;19.60;99.90
11505;DHT22;5809;53.262;10.408;2023-09-30T15:32:46;19.50;99.90
11505;DHT22;5809;53.262;10.408;2023-09-30T15:35:12;19.20;99.90
11505;DHT22;5809;53.262;10.408;2023-09-30T15:40:07;19.20;99.90
11505;DHT22;5809;53.262;10.408;2023-09-30T15:42:34;19.30;99.90
11505;DHT22;5809;53.262;10.408;2023-09-30T15:45:01;19.30;99.90
11505;DHT22;5809;53.262;10.408;2023-09-30T15:47:27;19.30;99.90
11505;DHT22;5809;53.262;10.408;2023-09-30T15:49:56;19.10;99.90
11505;DHT22;5809;53.262;10.408;2023-09-30T15:52:22;18.90;99.90
11505;DHT22;5809;53.262;10.408;2023-09-30T15:57:18;18.70;99.90
11505;DHT22;5809;53.262;10.408;2023-09-30T15:59:44;18.50;99.90
11505;DHT22;5809;53.262;10.408;2023-09-30T16:02:11;18.40;99.90
11505;DHT22;5809;53.262;10.408;2023-09-30T16:04:39;18.30;99.90
11505;DHT22;5809;53.262;10.408;2023-09-30T16:07:07;18.30;99.90
11505;DHT22;5809;53.262;10.408;2023-09-30T16:09:36;18.10;99.90
11505;DHT22;5809;53.262;10.408;2023-09-30T16:12:03;17.90;99.90
11505;DHT22;5809;53.262;10.408;2023-09-30T16:14:31;17.70;99.90
11505;DHT22;5809;53.262;10.408;2023-09-30T16:16:58;17.60;99.90
11505;DHT22;5809;53.262;10.408;2023-09-30T16:19:25;17.50;99.90
11505;DHT22;5809;53.262;10.408;2023-09-30T16:21:53;17.30;99.90
11505;DHT22;5809;53.262;10.408;2023-09-30T16:24:21;17.30;99.90
11505;DHT22;5809;53.262;10.408;2023-09-30T16:26:48;17.20;99.90
11505;DHT22;5809;53.262;10.408;2023-09-30T16:29:15;17.10;99.90
11505;DHT22;5809;53.262;10.408;2023-09-30T16:31:41;17.00;99.90
11505;DHT22;5809;53.262;10.408;2023-09-30T16:39:03;16.80;99.90
11505;DHT22;5809;53.262;10.408;2023-09-30T16:41:31;16.80;99.90
11505;DHT22;5809;53.262;10.408;2023-09-30T16:43:58;16.60;99.90
11505;DHT22;5809;53.262;10.408;2023-09-30T16:48:51;16.50;99.90
11505;DHT22;5809;53.262;10.408;2023-09-30T16:51:18;16.50;99.90
11505;DHT22;5809;53.262;10.408;2023-09-30T16:53:45;16.40;99.90
11505;DHT22;5809;53.262;10.408;2023-09-30T16:56:12;16.40;99.90
11505;DHT22;5809;53.262;10.408;2023-09-30T16:58:40;16.30;99.90
11505;DHT22;5809;53.262;10.408;2023-09-30T17:01:09;16.30;99.90
11505;DHT22;5809;53.262;10.408;2023-09-30T17:03:38;16.20;99.90
11505;DHT22;5809;53.262;10.408;2023-09-30T17:06:04;16.10;99.90
11505;DHT22;5809;53.262;10.408;2023-09-30T17:08:31;16.10;99.90
11505;DHT22;5809;53.262;10.408;2023-09-30T17:15:54;15.70;99.90
11505;DHT22;5809;53.262;10.408;2023-09-30T17:18:20;15.80;99.90
11505;DHT22;5809;53.262;10.408;2023-09-30T17:23:16;15.80;99.90
11505;DHT22;5809;53.262;10.408;2023-09-30T17:25:43;15.70;99.90
11505;DHT22;5809;53.262;10.408;2023-09-30T17:28:10;15.70;99.90
11505;DHT22;5809;53.262;10.408;2023-09-30T17:30:36;15.60;99.90
11505;DHT22;5809;53.262;10.408;2023-09-30T17:33:05;15.60;99.90
11505;DHT22;5809;53.262;10.408;2023-09-30T17:35:36;15.60;99.90
11505;DHT22;5809;53.262;10.408;2023-09-30T17:40:31;15.40;99.90
11505;DHT22;5809;53.262;10.408;2023-09-30T17:42:58;15.40;99.90
11505;DHT22;5809;53.262;10.408;2023-09-30T17:45:25;15.40;99.90
11505;DHT22;5809;53.262;10.408;2023-09-30T17:50:20;15.30;99.90
11505;DHT22;5809;53.262;10.408;2023-09-30T17:52:47;15.30;99.90
11505;DHT22;5809;53.262;10.408;2023-09-30T17:57:42;15.30;99.90
11505;DHT22;5809;53.262;10.408;2023-09-30T18:00:10;15.30;99.90
11505;DHT22;5809;53.262;10.408;2023-09-30T18:02:37;15.30;99.90
11505;DHT22;5809;53.262;10.408;2023-09-30T18:05:04;15.20;99.90
11505;DHT22;5809;53.262;10.408;2023-09-30T18:07:32;15.30;99.90
11505;DHT22;5809;53.262;10.408;2023-09-30T18:12:28;15.20;99.90
11505;DHT22;5809;53.262;10.408;2023-09-30T18:14:55;15.10;99.90
11505;DHT22;5809;53.262;10.408;2023-09-30T18:17:22;15.10;99.90
11505;DHT22;5809;53.262;10.408;2023-09-30T18:19:49;15.10;99.90
11505;DHT22;5809;53.262;10.408;2023-09-30T18:22:16;15.10;99.90
11505;DHT22;5809;53.262;10.408;2023-09-30T18:24:44;15.00;99.90
11505;DHT22;5809;53.262;10.408;2023-09-30T18:29:38;15.00;99.90
11505;DHT22;5809;53.262;10.408;2023-09-30T18:32:06;14.90;99.90
11505;DHT22;5809;53.262;10.408;2023-09-30T18:34:33;14.90;99.90
11505;DHT22;5809;53.262;10.408;2023-09-30T18:37:00;14.90;99.90
11505;DHT22;5809;53.262;10.408;2023-09-30T18:39:26;14.80;99.90
11505;DHT22;5809;53.262;10.408;2023-09-30T18:41:55;14.80;99.90
11505;DHT22;5809;53.262;10.408;2023-09-30T18:44:21;14.80;99.90
11505;DHT22;5809;53.262;10.408;2023-09-30T18:49:16;14.80;99.90
11505;DHT22;5809;53.262;10.408;2023-09-30T18:51:44;14.70;99.90
11505;DHT22;5809;53.262;10.408;2023-09-30T18:54:11;14.70;99.90
11505;DHT22;5809;53.262;10.408;2023-09-30T18:56:38;14.60;99.90
11505;DHT22;5809;53.262;10.408;2023-09-30T18:59:07;14.60;99.90
11505;DHT22;5809;53.262;10.408;2023-09-30T19:01:34;14.50;99.90
11505;DHT22;5809;53.262;10.408;2023-09-30T19:04:03;14.50;99.90
11505;DHT22;5809;53.262;10.408;2023-09-30T19:08:57;14.40;99.90
11505;DHT22;5809;53.262;10.408;2023-09-30T19:13:50;14.40;99.90
11505;DHT22;5809;53.262;10.408;2023-09-30T19:16:19;14.40;99.90
11505;DHT22;5809;53.262;10.408;2023-09-30T19:18:45;14.50;99.90
11505;DHT22;5809;53.262;10.408;2023-09-30T19:21:12;14.40;99.90
11505;DHT22;5809;53.262;10.408;2023-09-30T19:26:11;14.40;99.90
11505;DHT22;5809;53.262;10.408;2023-09-30T19:28:38;14.40;99.90
11505;DHT22;5809;53.262;10.408;2023-09-30T19:31:05;14.40;99.90
11505;DHT22;5809;53.262;10.408;2023-09-30T19:33:35;14.30;99.90